Melrose, Kansas
Current Conditions -  °F | °C
As of 1:53 PM on Wednesday 28 Jan 2015 (Local Time) from KJLN Reporting Station
Clear Clear  
Wind Chill: 75°   Ceiling: Unl
Heat Index: 75°   Visibility: 10mi
Dew Point: 37°   Wind: 24mph
Humidity: 25%   Direction: 190°S
Pressure: 29.87"   Gusts: 36mph
Location:  37.0587°N, 94.8848°W
Report Text: KJLN 281953Z 19021G31KT 10SM CLR 24/03 A2987 RMK AO2 PK WND 20031/1952 SLP111 T02390028
Loading
Personal Weather Stations






























Interactive Weather Map New forecast layout! Learn more

10-Day Weather Forecast

Advertisements
Track Severe Weather on mobile